createdAt,value
2022-11-26T00:00:48.261Z,1011.39
2022-11-26T00:01:48.321Z,1011.40
2022-11-26T00:02:48.517Z,1011.43
2022-11-26T00:03:48.281Z,1011.36
2022-11-26T00:04:48.210Z,1011.35
2022-11-26T00:05:48.237Z,1011.36
2022-11-26T00:06:48.190Z,1011.37
2022-11-26T00:07:48.230Z,1011.39
2022-11-26T00:08:48.161Z,1011.41
2022-11-26T00:09:48.182Z,1011.38
2022-11-26T00:10:48.149Z,1011.33
2022-11-26T00:11:48.142Z,1011.37
2022-11-26T00:12:48.138Z,1011.35
2022-11-26T00:13:48.112Z,1011.37
2022-11-26T00:14:48.122Z,1011.38
2022-11-26T00:15:48.129Z,1011.42
2022-11-26T00:16:48.204Z,1011.44
2022-11-26T00:17:48.101Z,1011.43
2022-11-26T00:18:48.191Z,1011.46
2022-11-26T00:19:48.122Z,1011.52
2022-11-26T00:20:48.107Z,1011.57
2022-11-26T00:21:48.053Z,1011.55
2022-11-26T00:22:48.083Z,1011.60
2022-11-26T00:23:47.968Z,1011.57
2022-11-26T00:24:47.953Z,1011.59
2022-11-26T00:25:48.087Z,1011.59
2022-11-26T00:26:47.930Z,1011.64
2022-11-26T00:27:47.938Z,1011.64
2022-11-26T00:28:47.899Z,1011.61
2022-11-26T00:29:47.882Z,1011.60
2022-11-26T00:30:47.910Z,1011.60
2022-11-26T00:31:47.971Z,1011.58
2022-11-26T00:32:47.881Z,1011.60
2022-11-26T00:33:47.871Z,1011.61
2022-11-26T00:34:47.821Z,1011.65
2022-11-26T00:35:47.830Z,1011.68
2022-11-26T00:36:47.792Z,1011.67
2022-11-26T00:37:47.783Z,1011.70
2022-11-26T00:38:47.773Z,1011.76
2022-11-26T00:39:47.760Z,1011.78
2022-11-26T00:40:47.763Z,1011.75
2022-11-26T00:41:47.729Z,1011.78
2022-11-26T00:42:47.719Z,1011.77
2022-11-26T00:43:47.690Z,1011.78
2022-11-26T00:44:47.718Z,1011.78
2022-11-26T00:45:47.927Z,1011.82
2022-11-26T00:46:47.659Z,1011.81
2022-11-26T00:47:47.652Z,1011.81
2022-11-26T00:48:47.647Z,1011.89
2022-11-26T00:49:47.690Z,1011.91
2022-11-26T00:50:47.660Z,1011.92
2022-11-26T00:51:47.603Z,1011.93
2022-11-26T00:52:47.581Z,1011.97
2022-11-26T00:53:47.571Z,1012.01
2022-11-26T00:54:47.559Z,1012.00
2022-11-26T00:55:47.561Z,1011.97
2022-11-26T00:56:47.529Z,1012.03
2022-11-26T00:57:47.520Z,1012.03
2022-11-26T00:58:47.569Z,1012.05
2022-11-26T00:59:47.531Z,1012.10
2022-11-26T01:00:47.538Z,1012.13
2022-11-26T01:01:47.559Z,1012.13
2022-11-26T01:02:47.461Z,1012.16
2022-11-26T01:03:47.449Z,1012.13
2022-11-26T01:04:47.426Z,1012.15
2022-11-26T01:05:47.442Z,1012.18
2022-11-26T01:06:47.397Z,1012.18
2022-11-26T01:07:47.474Z,1012.19
2022-11-26T01:08:47.379Z,1012.21
2022-11-26T01:09:47.392Z,1012.21
2022-11-26T01:10:47.359Z,1012.14
2022-11-26T01:11:52.378Z,1012.16
2022-11-26T01:12:48.336Z,1012.20
2022-11-26T01:13:47.338Z,1012.18
2022-11-26T01:14:47.297Z,1012.22
2022-11-26T01:15:47.301Z,1012.23
2022-11-26T01:16:47.338Z,1012.25
2022-11-26T01:17:47.260Z,1012.29
2022-11-26T01:18:47.250Z,1012.31
2022-11-26T01:19:47.229Z,1012.35
2022-11-26T01:20:47.227Z,1012.36
2022-11-26T01:21:47.237Z,1012.40
2022-11-26T01:22:47.201Z,1012.42
2022-11-26T01:23:47.182Z,1012.45
2022-11-26T01:24:47.167Z,1012.43
2022-11-26T01:25:47.167Z,1012.40
2022-11-26T01:26:47.151Z,1012.45
2022-11-26T01:27:47.131Z,1012.45
2022-11-26T01:28:47.119Z,1012.46
2022-11-26T01:29:54.257Z,1012.47
2022-11-26T01:30:47.098Z,1012.48
2022-11-26T01:31:47.305Z,1012.52
2022-11-26T01:32:47.067Z,1012.50
2022-11-26T01:33:47.055Z,1012.47
2022-11-26T01:34:47.046Z,1012.50
2022-11-26T01:35:47.036Z,1012.49
2022-11-26T01:36:47.029Z,1012.49
2022-11-26T01:37:47.004Z,1012.52
2022-11-26T01:38:46.983Z,1012.50
2022-11-26T01:39:47.005Z,1012.51
2022-11-26T01:40:46.965Z,1012.56
2022-11-26T01:41:46.946Z,1012.61
2022-11-26T01:42:46.938Z,1012.61
2022-11-26T01:43:46.924Z,1012.60
2022-11-26T01:44:46.925Z,1012.59
2022-11-26T01:45:46.984Z,1012.61
2022-11-26T01:46:46.927Z,1012.67
2022-11-26T01:47:46.875Z,1012.69
2022-11-26T01:48:46.855Z,1012.72
2022-11-26T01:49:46.846Z,1012.72
2022-11-26T01:50:46.826Z,1012.72
2022-11-26T01:51:46.883Z,1012.74
2022-11-26T01:52:46.797Z,1012.74
2022-11-26T01:53:46.799Z,1012.75
2022-11-26T01:54:46.766Z,1012.79
2022-11-26T01:55:46.764Z,1012.79
2022-11-26T01:56:46.767Z,1012.80
2022-11-26T01:57:46.749Z,1012.82
2022-11-26T01:58:46.751Z,1012.86
2022-11-26T01:59:46.712Z,1012.87
2022-11-26T02:00:46.818Z,1012.85
2022-11-26T02:01:46.752Z,1012.92
2022-11-26T02:02:46.752Z,1012.92
2022-11-26T02:03:46.656Z,1012.95
2022-11-26T02:04:46.647Z,1012.95
2022-11-26T02:05:46.634Z,1012.95
2022-11-26T02:06:46.645Z,1012.94
2022-11-26T02:07:46.696Z,1012.90
2022-11-26T02:08:46.615Z,1012.91
2022-11-26T02:09:46.618Z,1012.92
2022-11-26T02:10:46.572Z,1012.87
2022-11-26T02:11:46.602Z,1012.87
2022-11-26T02:12:46.534Z,1012.88
2022-11-26T02:13:46.524Z,1012.87
2022-11-26T02:14:46.572Z,1012.91
2022-11-26T02:15:46.509Z,1012.93
2022-11-26T02:16:46.560Z,1012.93
2022-11-26T02:17:46.489Z,1012.94
2022-11-26T02:18:46.483Z,1012.95
2022-11-26T02:19:46.454Z,1012.97
2022-11-26T02:20:46.428Z,1013.00
2022-11-26T02:21:46.424Z,1013.02
2022-11-26T02:22:46.434Z,1013.00
2022-11-26T02:23:46.405Z,1013.05
2022-11-26T02:24:46.376Z,1013.02
2022-11-26T02:25:46.374Z,1013.03
2022-11-26T02:26:46.367Z,1013.07
2022-11-26T02:27:46.355Z,1013.13
2022-11-26T02:28:46.323Z,1013.06
2022-11-26T02:29:46.324Z,1013.16
2022-11-26T02:30:46.304Z,1013.16
2022-11-26T02:31:46.389Z,1013.18
2022-11-26T02:32:46.354Z,1013.19
2022-11-26T02:33:46.270Z,1013.20
2022-11-26T02:34:46.253Z,1013.20
2022-11-26T02:35:46.241Z,1013.20
2022-11-26T02:36:46.243Z,1013.18
2022-11-26T02:37:46.237Z,1013.20
2022-11-26T02:38:46.203Z,1013.19
2022-11-26T02:39:46.183Z,1013.24
2022-11-26T02:40:46.183Z,1013.25
2022-11-26T02:41:46.163Z,1013.27
2022-11-26T02:42:46.162Z,1013.24
2022-11-26T02:43:46.138Z,1013.19
2022-11-26T02:44:46.122Z,1013.22
2022-11-26T02:45:46.156Z,1013.21
2022-11-26T02:46:46.107Z,1013.23
2022-11-26T02:47:46.103Z,1013.24
2022-11-26T02:48:46.083Z,1013.27
2022-11-26T02:49:46.051Z,1013.23
2022-11-26T02:50:46.041Z,1013.27
2022-11-26T02:51:46.029Z,1013.30
2022-11-26T02:52:46.036Z,1013.27
2022-11-26T02:53:46.001Z,1013.28
2022-11-26T02:54:45.994Z,1013.32
2022-11-26T02:55:45.982Z,1013.29
2022-11-26T02:56:45.962Z,1013.32
2022-11-26T02:57:45.970Z,1013.33
2022-11-26T02:58:45.940Z,1013.34
2022-11-26T02:59:45.922Z,1013.34
2022-11-26T03:00:45.977Z,1013.34
2022-11-26T03:01:45.926Z,1013.32
2022-11-26T03:02:45.903Z,1013.28
2022-11-26T03:03:45.894Z,1013.33
2022-11-26T03:04:45.862Z,1013.33
2022-11-26T03:05:45.840Z,1013.30
2022-11-26T03:06:45.832Z,1013.33
2022-11-26T03:07:45.875Z,1013.30
2022-11-26T03:08:45.818Z,1013.34
2022-11-26T03:09:45.797Z,1013.33
2022-11-26T03:10:45.782Z,1013.32
2022-11-26T03:11:45.811Z,1013.29
2022-11-26T03:12:45.772Z,1013.33
2022-11-26T03:13:45.746Z,1013.29
2022-11-26T03:14:45.733Z,1013.28
2022-11-26T03:15:45.710Z,1013.30
2022-11-26T03:16:45.739Z,1013.27
2022-11-26T03:17:45.691Z,1013.32
2022-11-26T03:18:45.683Z,1013.29
2022-11-26T03:19:45.651Z,1013.28
2022-11-26T03:20:45.651Z,1013.23
2022-11-26T03:21:45.628Z,1013.23
2022-11-26T03:22:45.651Z,1013.22
2022-11-26T03:23:45.602Z,1013.23
2022-11-26T03:24:45.601Z,1013.22
2022-11-26T03:25:45.581Z,1013.22
2022-11-26T03:26:45.584Z,1013.25
2022-11-26T03:27:45.570Z,1013.22
2022-11-26T03:28:45.541Z,1013.22
2022-11-26T03:29:45.531Z,1013.22
2022-11-26T03:30:45.521Z,1013.22
2022-11-26T03:31:45.570Z,1013.24
2022-11-26T03:32:45.512Z,1013.24
2022-11-26T03:33:45.483Z,1013.25
2022-11-26T03:34:45.472Z,1013.26
2022-11-26T03:35:45.450Z,1013.30
2022-11-26T03:36:45.450Z,1013.33
2022-11-26T03:37:45.451Z,1013.35
2022-11-26T03:38:45.416Z,1013.33
2022-11-26T03:39:45.400Z,1013.34
2022-11-26T03:40:45.382Z,1013.29
2022-11-26T03:41:45.369Z,1013.29
2022-11-26T03:42:45.382Z,1013.29
2022-11-26T03:43:45.345Z,1013.28
2022-11-26T03:44:45.330Z,1013.27
2022-11-26T03:45:45.360Z,1013.26
2022-11-26T03:46:45.312Z,1013.25
2022-11-26T03:47:45.311Z,1013.29
2022-11-26T03:48:45.281Z,1013.23
2022-11-26T03:49:45.272Z,1013.26
2022-11-26T03:50:45.250Z,1013.29
2022-11-26T03:51:45.240Z,1013.25
2022-11-26T03:52:45.231Z,1013.26
2022-11-26T03:53:45.241Z,1013.30
2022-11-26T03:54:45.210Z,1013.32
2022-11-26T03:55:45.193Z,1013.32
2022-11-26T03:56:45.259Z,1013.29
2022-11-26T03:57:45.162Z,1013.36
2022-11-26T03:58:45.189Z,1013.31
2022-11-26T03:59:45.131Z,1013.32
2022-11-26T04:00:45.119Z,1013.31
2022-11-26T04:01:45.155Z,1013.30
2022-11-26T04:02:45.126Z,1013.32
2022-11-26T04:03:45.100Z,1013.34
2022-11-26T04:04:45.080Z,1013.35
2022-11-26T04:05:45.059Z,1013.35
2022-11-26T04:06:45.052Z,1013.33
2022-11-26T04:07:45.096Z,1013.35
2022-11-26T04:08:45.041Z,1013.30
2022-11-26T04:09:45.018Z,1013.34
2022-11-26T04:10:44.988Z,1013.33
2022-11-26T04:11:44.982Z,1013.38
2022-11-26T04:12:44.969Z,1013.36
2022-11-26T04:13:45.000Z,1013.37
2022-11-26T04:14:44.972Z,1013.37
2022-11-26T04:15:44.919Z,1013.35
2022-11-26T04:16:45.011Z,1013.37
2022-11-26T04:17:44.900Z,1013.39
2022-11-26T04:18:44.910Z,1013.36
2022-11-26T04:19:44.888Z,1013.38
2022-11-26T04:20:47.656Z,1013.38
2022-11-26T04:21:45.859Z,1013.41
2022-11-26T04:22:44.850Z,1013.45
2022-11-26T04:23:44.852Z,1013.47
2022-11-26T04:24:44.809Z,1013.52
2022-11-26T04:25:44.802Z,1013.50
2022-11-26T04:26:44.779Z,1013.52
2022-11-26T04:27:44.778Z,1013.54
2022-11-26T04:28:44.769Z,1013.53
2022-11-26T04:29:44.745Z,1013.59
2022-11-26T04:30:44.728Z,1013.59
2022-11-26T04:31:44.790Z,1013.61
2022-11-26T04:32:44.719Z,1013.62
2022-11-26T04:33:44.723Z,1013.65
2022-11-26T04:34:44.678Z,1013.65
2022-11-26T04:35:44.683Z,1013.60
2022-11-26T04:36:44.650Z,1013.61
2022-11-26T04:37:44.640Z,1013.56
2022-11-26T04:38:44.649Z,1013.60
2022-11-26T04:39:44.608Z,1013.59
2022-11-26T04:40:44.609Z,1013.58
2022-11-26T04:41:44.589Z,1013.61
2022-11-26T04:42:44.570Z,1013.63
2022-11-26T04:43:44.581Z,1013.64
2022-11-26T04:44:44.547Z,1013.67
2022-11-26T04:45:44.597Z,1013.67
2022-11-26T04:46:44.531Z,1013.64
2022-11-26T04:47:44.518Z,1013.70
2022-11-26T04:48:44.558Z,1013.67
2022-11-26T04:49:44.492Z,1013.68
2022-11-26T04:50:44.477Z,1013.73
2022-11-26T04:51:44.448Z,1013.79
2022-11-26T04:52:44.439Z,1013.79
2022-11-26T04:53:44.447Z,1013.86
2022-11-26T04:54:44.416Z,1013.91
2022-11-26T04:55:44.396Z,1013.94
2022-11-26T04:56:44.419Z,1013.97
2022-11-26T04:57:44.389Z,1013.95
2022-11-26T04:58:44.379Z,1013.96
2022-11-26T04:59:44.349Z,1014.06
2022-11-26T05:00:46.017Z,1014.02
2022-11-26T05:01:45.350Z,1014.02
2022-11-26T05:02:44.375Z,1014.05
2022-11-26T05:03:44.329Z,1014.05
2022-11-26T05:04:44.278Z,1014.01
2022-11-26T05:05:44.278Z,1014.01
2022-11-26T05:06:44.295Z,1014.09
2022-11-26T05:07:44.326Z,1014.10
2022-11-26T05:08:44.250Z,1014.18
2022-11-26T05:09:44.228Z,1014.18
2022-11-26T05:10:44.197Z,1014.25
2022-11-26T05:11:44.190Z,1014.28
2022-11-26T05:12:44.180Z,1014.29
2022-11-26T05:13:44.178Z,1014.31
2022-11-26T05:14:44.148Z,1014.35
2022-11-26T05:15:44.150Z,1014.35
2022-11-26T05:16:44.172Z,1014.36
2022-11-26T05:17:44.134Z,1014.39
2022-11-26T05:18:44.118Z,1014.42
2022-11-26T05:19:44.099Z,1014.40
2022-11-26T05:20:44.066Z,1014.42
2022-11-26T05:21:44.068Z,1014.44
2022-11-26T05:22:44.047Z,1014.45
2022-11-26T05:23:44.062Z,1014.45
2022-11-26T05:24:44.017Z,1014.44
2022-11-26T05:25:44.026Z,1014.45
2022-11-26T05:26:44.009Z,1014.43
2022-11-26T05:27:43.978Z,1014.46
2022-11-26T05:28:44.007Z,1014.51
2022-11-26T05:29:43.958Z,1014.47
2022-11-26T05:30:43.937Z,1014.43
2022-11-26T05:31:44.027Z,1014.47
2022-11-26T05:32:43.916Z,1014.44
2022-11-26T05:33:43.916Z,1014.48
2022-11-26T05:34:43.886Z,1014.47
2022-11-26T05:35:43.904Z,1014.50
2022-11-26T05:36:43.858Z,1014.48
2022-11-26T05:37:43.855Z,1014.45
2022-11-26T05:38:43.856Z,1014.50
2022-11-26T05:39:43.839Z,1014.52
2022-11-26T05:40:43.815Z,1014.53
2022-11-26T05:41:43.813Z,1014.54
2022-11-26T05:42:43.787Z,1014.56
2022-11-26T05:43:43.795Z,1014.58
2022-11-26T05:44:43.757Z,1014.53
2022-11-26T05:45:43.819Z,1014.56
2022-11-26T05:46:43.740Z,1014.52
2022-11-26T05:47:43.726Z,1014.55
2022-11-26T05:48:43.728Z,1014.55
2022-11-26T05:49:43.678Z,1014.57
2022-11-26T05:50:43.686Z,1014.58
2022-11-26T05:51:43.646Z,1014.60
2022-11-26T05:52:43.656Z,1014.63
2022-11-26T05:53:43.684Z,1014.63
2022-11-26T05:54:43.641Z,1014.67
2022-11-26T05:55:43.626Z,1014.71
2022-11-26T05:56:43.597Z,1014.70
2022-11-26T05:57:43.599Z,1014.72
2022-11-26T05:58:43.602Z,1014.75
2022-11-26T05:59:43.574Z,1014.74
2022-11-26T06:00:43.549Z,1014.79
2022-11-26T06:01:43.544Z,1014.83
2022-11-26T06:02:43.687Z,1014.83
2022-11-26T06:03:43.581Z,1014.83
2022-11-26T06:04:43.524Z,1014.80
2022-11-26T06:05:43.506Z,1014.78
2022-11-26T06:06:43.467Z,1014.75
2022-11-26T06:07:45.092Z,1014.78
2022-11-26T06:08:43.462Z,1014.78
2022-11-26T06:09:43.465Z,1014.75
2022-11-26T06:10:43.414Z,1014.79
2022-11-26T06:11:43.414Z,1014.78
2022-11-26T06:12:43.394Z,1014.80
2022-11-26T06:13:43.396Z,1014.82
2022-11-26T06:14:43.803Z,1014.80
2022-11-26T06:15:43.373Z,1014.78
2022-11-26T06:16:43.394Z,1014.78
2022-11-26T06:17:43.352Z,1014.83
2022-11-26T06:18:43.325Z,1014.82
2022-11-26T06:19:43.333Z,1014.83
2022-11-26T06:20:43.295Z,1014.83
2022-11-26T06:21:43.285Z,1014.81
2022-11-26T06:22:43.273Z,1014.81
2022-11-26T06:23:50.589Z,1014.83
2022-11-26T06:24:44.304Z,1014.81
2022-11-26T06:25:43.248Z,1014.86
2022-11-26T06:26:43.317Z,1014.86
2022-11-26T06:27:43.244Z,1014.89
2022-11-26T06:28:43.233Z,1014.85
2022-11-26T06:29:43.211Z,1014.91
2022-11-26T06:30:43.164Z,1014.90
2022-11-26T06:31:43.242Z,1014.89
2022-11-26T06:32:43.144Z,1014.95
2022-11-26T06:33:43.133Z,1014.96
2022-11-26T06:34:44.282Z,1014.99
2022-11-26T06:35:43.113Z,1014.98
2022-11-26T06:36:43.093Z,1015.03
2022-11-26T06:37:43.083Z,1015.10
2022-11-26T06:38:43.075Z,1015.09
2022-11-26T06:39:43.073Z,1015.14
2022-11-26T06:40:43.045Z,1015.13
2022-11-26T06:41:43.021Z,1015.13
2022-11-26T06:42:43.011Z,1015.16
2022-11-26T06:43:43.000Z,1015.18
2022-11-26T06:44:43.008Z,1015.20
2022-11-26T06:45:43.004Z,1015.24
2022-11-26T06:46:42.960Z,1015.23
2022-11-26T06:47:42.941Z,1015.25
2022-11-26T06:48:42.942Z,1015.30
2022-11-26T06:49:42.921Z,1015.29
2022-11-26T06:50:42.940Z,1015.31
2022-11-26T06:51:42.903Z,1015.35
2022-11-26T06:52:42.881Z,1015.33
2022-11-26T06:53:42.891Z,1015.36
2022-11-26T06:54:42.851Z,1015.42
2022-11-26T06:55:42.873Z,1015.39
2022-11-26T06:56:42.831Z,1015.46
2022-11-26T06:57:42.822Z,1015.40
2022-11-26T06:58:42.802Z,1015.43
2022-11-26T06:59:42.802Z,1015.46
2022-11-26T07:00:42.792Z,1015.45
2022-11-26T07:01:42.861Z,1015.43
2022-11-26T07:02:42.831Z,1015.45
2022-11-26T07:03:42.744Z,1015.47
2022-11-26T07:04:42.730Z,1015.46
2022-11-26T07:05:42.754Z,1015.51
2022-11-26T07:06:42.703Z,1015.52
2022-11-26T07:07:42.763Z,1015.52
2022-11-26T07:08:42.671Z,1015.52
2022-11-26T07:09:42.661Z,1015.53
2022-11-26T07:10:46.177Z,1015.57
2022-11-26T07:11:43.639Z,1015.59
2022-11-26T07:12:42.621Z,1015.61
2022-11-26T07:13:42.620Z,1015.64
2022-11-26T07:14:42.596Z,1015.66
2022-11-26T07:15:42.671Z,1015.69
2022-11-26T07:16:42.570Z,1015.69
2022-11-26T07:17:42.564Z,1015.70
2022-11-26T07:18:42.539Z,1015.72
2022-11-26T07:19:42.531Z,1015.75
2022-11-26T07:20:42.539Z,1015.77
2022-11-26T07:21:42.510Z,1015.77
2022-11-26T07:22:42.491Z,1015.78
2022-11-26T07:23:42.488Z,1015.78
2022-11-26T07:24:42.459Z,1015.80
2022-11-26T07:25:42.479Z,1015.81
2022-11-26T07:26:42.439Z,1015.81
2022-11-26T07:27:42.443Z,1015.89
2022-11-26T07:28:42.449Z,1015.89
2022-11-26T07:29:42.407Z,1015.91
2022-11-26T07:30:42.399Z,1015.95
2022-11-26T07:31:42.423Z,1015.98
2022-11-26T07:32:49.645Z,1015.92
2022-11-26T07:33:42.342Z,1015.90
2022-11-26T07:34:42.352Z,1015.89
2022-11-26T07:35:42.373Z,1015.87
2022-11-26T07:36:42.317Z,1015.82
2022-11-26T07:37:42.303Z,1015.84
2022-11-26T07:38:42.334Z,1015.86
2022-11-26T07:39:42.276Z,1015.87
2022-11-26T07:40:42.273Z,1015.92
2022-11-26T07:41:42.232Z,1015.91
2022-11-26T07:42:42.246Z,1015.93
2022-11-26T07:43:42.205Z,1015.97
2022-11-26T07:44:42.202Z,1016.04
2022-11-26T07:45:42.256Z,1016.03
2022-11-26T07:46:42.284Z,1016.02
2022-11-26T07:47:42.166Z,1016.04
2022-11-26T07:48:42.145Z,1016.07
2022-11-26T07:49:42.142Z,1016.05
2022-11-26T07:50:42.152Z,1016.07
2022-11-26T07:51:42.149Z,1016.07
2022-11-26T07:52:42.092Z,1016.11
2022-11-26T07:53:42.084Z,1016.11
2022-11-26T07:54:42.074Z,1016.08
2022-11-26T07:55:42.102Z,1016.09
2022-11-26T07:56:42.044Z,1016.09
2022-11-26T07:57:42.031Z,1016.08
2022-11-26T07:58:42.049Z,1016.05
2022-11-26T07:59:42.012Z,1016.03
2022-11-26T08:00:42.012Z,1015.99
2022-11-26T08:01:42.058Z,1015.99
2022-11-26T08:02:42.047Z,1016.00
2022-11-26T08:03:41.959Z,1016.03
2022-11-26T08:04:41.944Z,1016.03
2022-11-26T08:05:41.961Z,1016.05
2022-11-26T08:06:41.912Z,1016.09
2022-11-26T08:07:41.943Z,1016.03
2022-11-26T08:08:41.892Z,1016.05
2022-11-26T08:09:41.882Z,1016.05
2022-11-26T08:10:41.881Z,1016.08
2022-11-26T08:11:41.892Z,1016.05
2022-11-26T08:12:41.852Z,1016.08
2022-11-26T08:13:41.830Z,1016.12
2022-11-26T08:14:41.811Z,1016.13
2022-11-26T08:15:41.812Z,1016.18
2022-11-26T08:16:41.927Z,1016.21
2022-11-26T08:17:41.781Z,1016.24
2022-11-26T08:18:41.762Z,1016.26
2022-11-26T08:19:41.758Z,1016.27
2022-11-26T08:20:41.730Z,1016.27
2022-11-26T08:21:41.740Z,1016.27
2022-11-26T08:22:41.722Z,1016.31
2022-11-26T08:23:41.700Z,1016.33
2022-11-26T08:24:41.770Z,1016.35
2022-11-26T08:25:59.329Z,1016.37
2022-11-26T08:26:44.540Z,1016.39
2022-11-26T08:27:41.641Z,1016.40
2022-11-26T08:28:41.661Z,1016.40
2022-11-26T08:29:41.652Z,1016.46
2022-11-26T08:30:41.608Z,1016.47
2022-11-26T08:31:45.715Z,1016.49
2022-11-26T08:32:41.581Z,1016.48
2022-11-26T08:33:41.561Z,1016.51
2022-11-26T08:34:41.667Z,1016.53
2022-11-26T08:36:05.472Z,1016.55
2022-11-26T08:36:42.561Z,1016.53
2022-11-26T08:37:42.649Z,1016.53
2022-11-26T08:38:41.490Z,1016.51
2022-11-26T08:39:41.482Z,1016.48
2022-11-26T08:40:41.469Z,1016.51
2022-11-26T08:41:41.492Z,1016.49
2022-11-26T08:42:41.440Z,1016.54
2022-11-26T08:44:42.439Z,1016.54
2022-11-26T08:45:41.410Z,1016.55
2022-11-26T08:46:41.651Z,1016.59
2022-11-26T08:47:41.412Z,1016.62
2022-11-26T08:48:41.379Z,1016.58
2022-11-26T08:49:41.359Z,1016.61
2022-11-26T08:50:41.370Z,1016.60
2022-11-26T08:51:41.340Z,1016.63
2022-11-26T08:52:41.328Z,1016.64
2022-11-26T08:53:41.298Z,1016.60
2022-11-26T08:54:45.010Z,1016.61
2022-11-26T08:55:59.627Z,1016.59
2022-11-26T08:56:42.290Z,1016.56
2022-11-26T08:57:41.258Z,1016.61
2022-11-26T08:58:41.236Z,1016.58
2022-11-26T08:59:41.220Z,1016.57
2022-11-26T09:00:41.210Z,1016.62
2022-11-26T09:01:41.243Z,1016.58
2022-11-26T09:02:41.291Z,1016.58
2022-11-26T09:03:41.177Z,1016.60
2022-11-26T09:04:41.441Z,1016.59
2022-11-26T09:05:41.152Z,1016.56
2022-11-26T09:06:41.178Z,1016.57
2022-11-26T09:07:45.207Z,1016.55
2022-11-26T09:08:42.101Z,1016.57
2022-11-26T09:09:41.089Z,1016.60
2022-11-26T09:10:41.079Z,1016.61
2022-11-26T09:11:41.087Z,1016.58
2022-11-26T09:12:41.067Z,1016.60
2022-11-26T09:13:41.037Z,1016.60
2022-11-26T09:14:41.476Z,1016.58
2022-11-26T09:15:41.007Z,1016.62
2022-11-26T09:16:41.071Z,1016.63
2022-11-26T09:17:41.004Z,1016.62
2022-11-26T09:18:41.000Z,1016.61
2022-11-26T09:19:40.958Z,1016.60
2022-11-26T09:20:40.935Z,1016.64
2022-11-26T09:21:40.968Z,1016.61
2022-11-26T09:22:41.059Z,1016.60
2022-11-26T09:23:40.902Z,1016.60
2022-11-26T09:24:41.086Z,1016.61
2022-11-26T09:25:40.987Z,1016.64
2022-11-26T09:26:40.904Z,1016.62
2022-11-26T09:27:41.722Z,1016.59
2022-11-26T09:28:41.619Z,1016.63
2022-11-26T09:29:41.923Z,1016.57
2022-11-26T09:30:41.617Z,1016.61
2022-11-26T09:32:00.879Z,1016.59
2022-11-26T09:32:42.031Z,1016.58
2022-11-26T09:33:41.266Z,1016.59
2022-11-26T09:34:41.325Z,1016.65
2022-11-26T09:35:40.737Z,1016.57
2022-11-26T09:36:40.747Z,1016.58
2022-11-26T09:37:40.745Z,1016.56
2022-11-26T09:38:40.721Z,1016.55
2022-11-26T09:39:40.677Z,1016.49
2022-11-26T09:40:40.983Z,1016.46
2022-11-26T09:41:40.836Z,1016.44
2022-11-26T09:42:40.699Z,1016.44
2022-11-26T09:43:40.697Z,1016.40
2022-11-26T09:44:41.154Z,1016.39
2022-11-26T09:45:41.043Z,1016.42
2022-11-26T09:46:50.802Z,1016.37
2022-11-26T09:47:42.149Z,1016.39
2022-11-26T09:48:41.211Z,1016.42
2022-11-26T09:49:40.560Z,1016.44
2022-11-26T09:50:41.478Z,1016.47
2022-11-26T09:51:40.547Z,1016.48
2022-11-26T09:52:40.548Z,1016.54
2022-11-26T09:53:40.487Z,1016.57
2022-11-26T09:54:40.854Z,1016.53
2022-11-26T09:55:40.487Z,1016.53
2022-11-26T09:56:40.468Z,1016.54
2022-11-26T09:57:40.799Z,1016.51
2022-11-26T09:58:40.497Z,1016.48
2022-11-26T09:59:40.438Z,1016.49
2022-11-26T10:00:40.453Z,1016.50
2022-11-26T10:01:40.540Z,1016.49
2022-11-26T10:02:40.451Z,1016.52
2022-11-26T10:03:40.387Z,1016.50
2022-11-26T10:04:40.757Z,1016.52
2022-11-26T10:05:40.376Z,1016.49
2022-11-26T10:06:40.404Z,1016.49
2022-11-26T10:07:40.401Z,1016.51
2022-11-26T10:08:40.327Z,1016.50
2022-11-26T10:09:40.305Z,1016.52
2022-11-26T10:10:40.295Z,1016.55
2022-11-26T10:11:40.277Z,1016.52
2022-11-26T10:13:03.036Z,1016.53
2022-11-26T10:13:41.259Z,1016.52
2022-11-26T10:14:40.528Z,1016.51
2022-11-26T10:15:40.216Z,1016.51
2022-11-26T10:16:40.322Z,1016.52
2022-11-26T10:17:40.213Z,1016.52
2022-11-26T10:18:40.630Z,1016.44
2022-11-26T10:19:40.181Z,1016.51
2022-11-26T10:20:40.175Z,1016.47
2022-11-26T10:22:41.156Z,1016.49
2022-11-26T10:23:40.117Z,1016.50
2022-11-26T10:24:40.479Z,1016.51
2022-11-26T10:25:40.096Z,1016.47
2022-11-26T10:26:40.085Z,1016.50
2022-11-26T10:27:40.064Z,1016.50
2022-11-26T10:28:40.146Z,1016.52
2022-11-26T10:29:40.025Z,1016.51
2022-11-26T10:30:40.033Z,1016.52
2022-11-26T10:31:40.089Z,1016.55
2022-11-26T10:32:40.039Z,1016.55
2022-11-26T10:33:40.017Z,1016.56
2022-11-26T10:34:40.049Z,1016.56
2022-11-26T10:35:39.957Z,1016.61
2022-11-26T10:36:39.956Z,1016.56
2022-11-26T10:37:39.926Z,1016.54
2022-11-26T10:38:39.946Z,1016.56
2022-11-26T10:39:39.913Z,1016.57
2022-11-26T10:40:39.907Z,1016.56
2022-11-26T10:41:39.885Z,1016.59
2022-11-26T10:42:39.876Z,1016.55
2022-11-26T10:43:39.895Z,1016.59
2022-11-26T10:44:40.423Z,1016.61
2022-11-26T10:45:39.941Z,1016.59
2022-11-26T10:46:40.040Z,1016.61
2022-11-26T10:47:39.806Z,1016.57
2022-11-26T10:48:39.815Z,1016.61
2022-11-26T10:49:39.870Z,1016.59
2022-11-26T10:50:47.596Z,1016.59
2022-11-26T10:51:40.755Z,1016.56
2022-11-26T10:52:39.859Z,1016.57
2022-11-26T10:53:39.801Z,1016.56
2022-11-26T10:54:39.835Z,1016.52
2022-11-26T10:55:39.796Z,1016.49
2022-11-26T10:56:39.705Z,1016.49
2022-11-26T10:57:39.679Z,1016.45
2022-11-26T10:58:39.684Z,1016.41
2022-11-26T10:59:39.775Z,1016.38
2022-11-26T11:00:39.729Z,1016.42
2022-11-26T11:01:39.699Z,1016.36
2022-11-26T11:02:39.685Z,1016.41
2022-11-26T11:04:07.257Z,1016.36
2022-11-26T11:04:40.614Z,1016.37
2022-11-26T11:05:39.575Z,1016.39
2022-11-26T11:06:39.563Z,1016.42
2022-11-26T11:07:39.559Z,1016.41
2022-11-26T11:08:39.555Z,1016.38
2022-11-26T11:09:39.519Z,1016.40
2022-11-26T11:10:39.505Z,1016.42
2022-11-26T11:11:39.495Z,1016.35
2022-11-26T11:12:39.476Z,1016.34
2022-11-26T11:13:39.479Z,1016.31
2022-11-26T11:14:42.688Z,1016.34
2022-11-26T11:15:39.436Z,1016.37
2022-11-26T11:16:39.513Z,1016.34
2022-11-26T11:17:39.425Z,1016.37
2022-11-26T11:18:39.526Z,1016.36
2022-11-26T11:19:39.423Z,1016.37
2022-11-26T11:20:39.467Z,1016.35
2022-11-26T11:21:43.844Z,1016.35
2022-11-26T11:22:40.425Z,1016.34
2022-11-26T11:24:07.045Z,1016.35
2022-11-26T11:24:40.652Z,1016.34
2022-11-26T11:25:39.417Z,1016.36
2022-11-26T11:26:39.616Z,1016.42
2022-11-26T11:27:39.332Z,1016.41
2022-11-26T11:28:39.502Z,1016.40
2022-11-26T11:29:39.317Z,1016.40
2022-11-26T11:30:39.399Z,1016.42
2022-11-26T11:31:39.332Z,1016.39
2022-11-26T11:32:39.281Z,1016.38
2022-11-26T11:33:39.265Z,1016.38
2022-11-26T11:34:39.526Z,1016.35
2022-11-26T11:35:39.314Z,1016.36
2022-11-26T11:36:39.275Z,1016.34
2022-11-26T11:37:39.163Z,1016.32
2022-11-26T11:38:39.187Z,1016.31
2022-11-26T11:39:39.161Z,1016.30
2022-11-26T11:40:39.194Z,1016.33
2022-11-26T11:41:39.106Z,1016.34
2022-11-26T11:42:39.106Z,1016.38
2022-11-26T11:43:39.084Z,1016.36
2022-11-26T11:44:39.416Z,1016.42
2022-11-26T11:45:39.137Z,1016.39
2022-11-26T11:46:39.036Z,1016.39
2022-11-26T11:47:39.024Z,1016.35
2022-11-26T11:48:39.024Z,1016.32
2022-11-26T11:49:39.029Z,1016.24
2022-11-26T11:50:38.995Z,1016.24
2022-11-26T11:51:38.995Z,1016.19
2022-11-26T11:52:39.125Z,1016.20
2022-11-26T11:53:38.962Z,1016.20
2022-11-26T11:54:39.162Z,1016.21
2022-11-26T11:55:38.923Z,1016.20
2022-11-26T11:56:38.915Z,1016.24
2022-11-26T11:57:38.918Z,1016.21
2022-11-26T11:58:38.896Z,1016.23
2022-11-26T11:59:38.884Z,1016.23
2022-11-26T12:00:38.865Z,1016.23
2022-11-26T12:01:39.002Z,1016.18
2022-11-26T12:02:38.955Z,1016.22
2022-11-26T12:03:38.824Z,1016.21
2022-11-26T12:04:39.200Z,1016.23
2022-11-26T12:05:38.805Z,1016.24
2022-11-26T12:06:38.796Z,1016.24
2022-11-26T12:07:38.841Z,1016.26